Time;durP1;ratioP1;P1;durP2;ratioP2;P2;SDS_P1;SDS_P2;PMS_P1;PMS_P2;Temp;Humidity;BMP_temperature;BMP_pressure;BME280_temperature;BME280_humidity;BME280_pressure;Samples;Min_cycle;Max_cycle;Signal;HPM_P1;HPM_P2
2024/01/10 00:03:48;;;;;;;10.15;5.75;;;;;;;-2.79;58.67;100166.41;7283489;39;21019;31
2024/01/10 00:09:22;;;;;;;11.20;5.60;;;;;;;-2.72;58.84;100150.34;7111091;40;21162;31
2024/01/10 00:14:56;;;;;;;9.97;5.23;;;;;;;-2.72;58.93;100150.34;7299439;39;20317;31
2024/01/10 00:20:32;;;;;;;9.00;4.93;;;;;;;-2.70;58.59;100146.72;7256162;40;20312;31
2024/01/10 00:26:08;;;;;;;8.67;5.07;;;;;;;-2.75;57.90;100136.34;7216879;40;20249;31
2024/01/10 00:31:43;;;;;;;8.97;5.37;;;;;;;-2.72;58.58;100141.50;7172933;40;20255;31
2024/01/10 00:37:03;;;;;;;9.80;5.57;;;;;;;-2.67;58.79;100140.47;7219989;40;20249;31
2024/01/10 00:42:40;;;;;;;9.10;5.10;;;;;;;-2.59;58.82;100135.75;7187499;40;20415;31
2024/01/10 00:48:00;;;;;;;11.23;5.60;;;;;;;-2.66;57.94;100137.78;7252241;40;20237;31
2024/01/10 00:53:21;;;;;;;11.37;5.53;;;;;;;-2.61;58.50;100135.81;7266279;40;20299;31
2024/01/10 00:58:57;;;;;;;8.63;5.27;;;;;;;-2.61;57.84;100138.44;7289441;39;20245;31
2024/01/10 01:09:22;;;;;;;8.30;5.15;;;;;;;-2.51;58.74;100137.16;7276035;40;20715;31
2024/01/10 01:14:58;;;;;;;7.80;5.17;;;;;;;-2.58;58.98;100134.81;7283021;40;20284;31
2024/01/10 01:25:37;;;;;;;8.60;5.50;;;;;;;-2.66;57.94;100131.63;7336067;39;20838;31
2024/01/10 01:31:13;;;;;;;10.60;5.53;;;;;;;-2.70;57.72;100145.87;7273424;39;20325;31
2024/01/10 01:41:53;;;;;;;11.05;5.35;;;;;;;-2.61;58.38;100130.53;7295197;39;20861;31
2024/01/10 01:52:32;;;;;;;9.43;5.90;;;;;;;-2.72;58.13;100123.03;7216885;40;20757;31
2024/01/10 02:03:08;;;;;;;11.60;5.93;;;;;;;-2.81;57.97;100123.41;7307801;39;21722;31
2024/01/10 02:08:44;;;;;;;8.90;5.60;;;;;;;-2.76;57.74;100112.66;7322091;39;20240;31
2024/01/10 02:14:19;;;;;;;11.83;5.90;;;;;;;-2.75;58.17;100112.63;7209054;40;20253;31
2024/01/10 02:19:54;;;;;;;5.77;3.97;;;;;;;-2.61;57.70;100112.06;7219908;40;20328;31
2024/01/10 02:25:30;;;;;;;11.33;5.90;;;;;;;-2.73;57.65;100102.00;7177018;40;20405;31
2024/01/10 02:31:05;;;;;;;8.53;5.27;;;;;;;-2.70;58.66;100090.47;7170070;40;20294;31
2024/01/10 02:36:25;;;;;;;10.87;6.13;;;;;;;-2.67;58.59;100101.75;7167007;40;20254;31
2024/01/10 02:42:01;;;;;;;10.17;5.77;;;;;;;-2.79;58.49;100092.56;7186828;40;20266;31
2024/01/10 02:47:21;;;;;;;9.63;5.90;;;;;;;-2.72;58.40;100088.75;7216160;40;20274;31
2024/01/10 02:52:42;;;;;;;10.55;6.05;;;;;;;-2.72;57.94;100083.47;7221867;40;20351;31
2024/01/10 02:58:16;;;;;;;10.97;6.50;;;;;;;-2.68;58.05;100080.72;7268596;39;20255;31
2024/01/10 03:03:36;;;;;;;9.90;5.90;;;;;;;-2.65;58.22;100078.81;7231764;40;20348;31
2024/01/10 03:09:11;;;;;;;11.10;6.50;;;;;;;-2.66;58.10;100078.88;7218208;40;20238;31
2024/01/10 03:14:45;;;;;;;10.65;6.55;;;;;;;-2.69;57.92;100074.59;7245695;40;20261;31
2024/01/10 03:20:18;;;;;;;11.73;6.37;;;;;;;-2.71;58.10;100076.41;7213518;40;20377;31
2024/01/10 03:25:38;;;;;;;8.67;4.53;;;;;;;-2.69;57.67;100073.72;7199950;40;20258;31
2024/01/10 03:31:15;;;;;;;11.03;5.53;;;;;;;-2.75;58.40;100070.41;7212773;40;20242;31
2024/01/10 03:36:35;;;;;;;9.07;5.90;;;;;;;-2.72;57.93;100076.50;7196662;40;20238;31
2024/01/10 03:42:10;;;;;;;10.60;6.30;;;;;;;-2.79;58.23;100070.59;7237423;40;20247;31
2024/01/10 03:47:49;;;;;;;10.90;6.13;;;;;;;-2.94;58.00;100073.88;7237305;40;20379;31
2024/01/10 03:53:21;;;;;;;9.77;6.43;;;;;;;-2.91;58.74;100079.88;7225573;40;20262;31
2024/01/10 03:58:53;;;;;;;10.05;6.05;;;;;;;-2.95;58.58;100080.06;7239439;40;20238;31
2024/01/10 04:04:29;;;;;;;12.53;7.03;;;;;;;-3.00;58.67;100082.88;7197581;40;20400;31
2024/01/10 04:09:49;;;;;;;10.20;6.47;;;;;;;-2.88;58.82;100095.56;7178164;40;20310;31
2024/01/10 04:15:23;;;;;;;10.53;6.80;;;;;;;-2.87;59.39;100097.28;7228324;40;20347;31
2024/01/10 04:20:59;;;;;;;13.00;6.70;;;;;;;-2.88;59.22;100086.78;7224950;40;21411;31
2024/01/10 04:31:37;;;;;;;14.20;6.53;;;;;;;-2.90;59.34;100091.28;7216857;40;20248;31
2024/01/10 04:37:12;;;;;;;11.43;6.60;;;;;;;-2.98;59.34;100098.59;7212131;40;20251;31
2024/01/10 04:42:44;;;;;;;10.82;6.12;;;;;;;-3.02;59.42;100095.25;7207738;40;20284;31
2024/01/10 04:48:17;;;;;;;11.87;6.60;;;;;;;-3.08;59.61;100092.84;7222097;40;20265;31
2024/01/10 04:53:53;;;;;;;12.97;7.13;;;;;;;-3.10;59.75;100089.41;7198227;40;20246;31
2024/01/10 04:59:13;;;;;;;11.47;6.97;;;;;;;-3.11;60.04;100090.31;7178332;40;20243;31
2024/01/10 05:04:33;;;;;;;13.17;6.80;;;;;;;-3.11;60.26;100089.47;7184410;40;20278;31
2024/01/10 05:15:10;;;;;;;12.40;6.77;;;;;;;-3.23;60.16;100091.66;7261455;40;21272;31
2024/01/10 05:20:31;;;;;;;11.13;6.43;;;;;;;-3.19;60.39;100092.41;7257324;40;20261;31
2024/01/10 05:31:09;;;;;;;12.70;7.50;;;;;;;-3.22;60.78;100092.53;7215589;40;20270;31
2024/01/10 05:36:44;;;;;;;14.30;6.93;;;;;;;-3.19;60.27;100100.31;7257931;40;20246;31
2024/01/10 05:42:20;;;;;;;12.97;7.10;;;;;;;-3.13;60.39;100096.59;7221452;39;20379;31
2024/01/10 05:47:55;;;;;;;12.77;7.10;;;;;;;-3.21;60.39;100103.03;7182293;40;20263;31
2024/01/10 05:53:30;;;;;;;11.74;6.62;;;;;;;-3.25;60.46;100096.12;7145204;40;20532;31
2024/01/10 06:04:08;;;;;;;10.95;6.95;;;;;;;-3.33;60.79;100087.66;7175832;40;20708;31
2024/01/10 06:09:40;;;;;;;15.10;7.07;;;;;;;-3.33;61.41;100094.69;7259784;39;20414;31
2024/01/10 06:20:15;;;;;;;13.07;6.53;;;;;;;-3.34;61.23;100093.88;7239721;40;21293;31
2024/01/10 06:30:52;;;;;;;13.45;7.25;;;;;;;-3.35;61.67;100093.91;7217425;40;21212;31
2024/01/10 06:41:31;;;;;;;17.40;8.10;;;;;;;-3.39;61.94;100092.31;7254233;39;21227;31
2024/01/10 06:52:10;;;;;;;14.07;7.33;;;;;;;-3.25;61.88;100098.75;7247403;40;21916;31
2024/01/10 06:57:40;;;;;;;13.47;7.43;;;;;;;-3.19;61.61;100100.31;7196849;40;20476;31
2024/01/10 07:08:17;;;;;;;12.43;7.27;;;;;;;-3.12;61.68;100111.50;7236080;40;21318;31
2024/01/10 07:13:54;;;;;;;12.10;6.80;;;;;;;-3.12;61.32;100119.41;7251021;39;20311;31
2024/01/10 07:19:29;;;;;;;15.75;7.45;;;;;;;-3.04;61.39;100131.38;7257472;40;20253;31
2024/01/10 07:25:01;;;;;;;16.00;9.70;;;;;;;-3.08;61.98;100116.59;7030429;40;21490;31
2024/01/10 07:30:34;;;;;;;13.37;7.83;;;;;;;-3.03;61.65;100125.19;7196562;40;20263;31
2024/01/10 07:35:55;;;;;;;11.98;7.25;;;;;;;-3.04;61.63;100126.09;7192669;40;20290;31
2024/01/10 07:46:37;;;;;;;14.70;7.55;;;;;;;-3.03;61.53;100145.41;7276190;39;20707;31
2024/01/10 07:52:10;;;;;;;12.03;7.23;;;;;;;-3.07;60.98;100144.66;7219823;40;20376;31
2024/01/10 07:57:45;;;;;;;15.40;8.00;;;;;;;-3.02;61.28;100137.41;7265483;40;20252;31
2024/01/10 08:03:16;;;;;;;14.27;7.80;;;;;;;-3.00;61.40;100158.47;7214102;40;20701;31
2024/01/10 08:13:56;;;;;;;12.65;7.75;;;;;;;-2.92;61.00;100151.12;7189045;40;20731;31
2024/01/10 08:19:32;;;;;;;14.37;7.83;;;;;;;-2.93;61.10;100160.81;7222513;40;20409;31
2024/01/10 08:25:07;;;;;;;18.07;7.37;;;;;;;-2.87;61.42;100163.22;7202226;40;20265;31
2024/01/10 08:30:42;;;;;;;12.63;7.90;;;;;;;-2.84;60.89;100154.31;7158198;40;20297;31
2024/01/10 08:36:16;;;;;;;14.30;7.77;;;;;;;-2.91;61.55;100158.97;7135012;40;20264;31
2024/01/10 08:41:51;;;;;;;15.63;8.50;;;;;;;-2.92;61.75;100162.53;7156814;40;20259;31
2024/01/10 08:47:09;;;;;;;12.87;7.20;;;;;;;-2.84;61.42;100168.38;7220975;40;20245;31
2024/01/10 08:52:43;;;;;;;16.23;8.10;;;;;;;-2.79;61.76;100163.78;7266730;40;20237;31
2024/01/10 08:58:03;;;;;;;13.80;8.20;;;;;;;-2.71;61.02;100166.09;7261262;39;20366;31
2024/01/10 09:08:44;;;;;;;13.70;8.37;;;;;;;-2.65;61.49;100170.28;7236598;40;20850;31
2024/01/10 09:14:04;;;;;;;13.50;7.73;;;;;;;-2.52;61.44;100172.37;7213301;40;20246;31
2024/01/10 09:19:25;;;;;;;15.17;8.20;;;;;;;-2.48;61.50;100178.41;7288806;39;20303;31
2024/01/10 09:25:04;;;;;;;13.47;7.43;;;;;;;-2.49;60.30;100172.25;7277715;40;20360;31
2024/01/10 09:30:37;;;;;;;12.90;7.47;;;;;;;-2.37;61.20;100173.56;7289650;39;20240;31
2024/01/10 09:35:58;;;;;;;14.47;7.87;;;;;;;-2.38;60.40;100177.13;7296199;39;20341;31
2024/01/10 09:41:34;;;;;;;12.55;7.80;;;;;;;-2.30;61.36;100183.81;7278113;40;20283;31
2024/01/10 09:47:10;;;;;;;16.90;7.50;;;;;;;-2.16;60.72;100175.31;7222690;40;20443;31
2024/01/10 09:52:45;;;;;;;13.20;7.80;;;;;;;-2.08;60.89;100178.50;7216375;40;20366;31
2024/01/10 09:58:22;;;;;;;16.60;8.20;;;;;;;-2.03;60.78;100176.53;7218152;40;20388;31
2024/01/10 10:03:57;;;;;;;12.67;7.80;;;;;;;-1.93;60.48;100180.47;7164587;40;20293;31
2024/01/10 10:09:32;;;;;;;14.13;8.70;;;;;;;-1.83;60.79;100181.81;7198115;40;20320;31
2024/01/10 10:15:09;;;;;;;13.03;7.47;;;;;;;-1.79;59.88;100184.31;7187333;40;20257;31
2024/01/10 10:20:45;;;;;;;14.80;8.00;;;;;;;-1.72;60.84;100186.66;7218329;40;20264;31
2024/01/10 10:26:41;;;;;;;13.60;7.80;;;;;;;-1.64;59.64;100175.75;7175398;40;20279;31
2024/01/10 10:37:22;;;;;;;15.20;8.55;;;;;;;-1.51;60.25;100175.16;7188583;40;20266;31
2024/01/10 10:47:59;;;;;;;13.47;7.43;;;;;;;-1.30;59.76;100183.91;7230698;39;21220;31
2024/01/10 10:53:36;;;;;;;16.50;8.80;;;;;;;-1.25;60.29;100179.28;7277185;40;20264;31
2024/01/10 10:59:12;;;;;;;15.60;8.50;;;;;;;-1.19;59.42;100173.75;7235443;40;20242;31
2024/01/10 11:04:48;;;;;;;15.30;8.97;;;;;;;-1.08;60.71;100171.44;7256651;40;20308;31
2024/01/10 11:10:25;;;;;;;14.30;8.40;;;;;;;-0.99;59.45;100173.69;7217047;40;20247;31
2024/01/10 11:16:03;;;;;;;15.45;9.90;;;;;;;-1.00;59.77;100168.44;7158772;40;20263;31
2024/01/10 11:21:38;;;;;;;13.30;8.00;;;;;;;-0.87;59.58;100166.94;7186500;40;20321;31
2024/01/10 11:27:23;;;;;;;13.83;8.33;;;;;;;-0.73;60.34;100171.59;7192353;40;20393;31
2024/01/10 11:32:56;;;;;;;14.23;9.07;;;;;;;-0.64;59.94;100169.37;7248143;39;20878;31
2024/01/10 11:38:17;;;;;;;17.10;8.97;;;;;;;-0.49;59.46;100184.56;7264166;40;20340;31
2024/01/10 11:43:53;;;;;;;16.10;9.60;;;;;;;-0.37;59.28;100176.94;7259805;40;20368;31
2024/01/10 11:49:29;;;;;;;16.90;9.07;;;;;;;-0.23;58.69;100153.31;7239136;40;20277;31
2024/01/10 12:00:11;;;;;;;14.33;9.13;;;;;;;-0.14;58.68;100152.84;7195674;40;20860;31
2024/01/10 12:05:46;;;;;;;15.70;9.33;;;;;;;-0.14;59.08;100151.06;7227905;40;20375;31
2024/01/10 12:16:29;;;;;;;17.05;9.35;;;;;;;-0.01;59.14;100149.50;7275951;40;20736;31
2024/01/10 12:27:08;;;;;;;15.13;9.47;;;;;;;0.20;58.88;100142.25;7317076;39;20871;31
2024/01/10 12:32:46;;;;;;;17.53;9.33;;;;;;;0.34;59.33;100138.91;7286463;39;20236;31
2024/01/10 12:38:22;;;;;;;20.95;10.25;;;;;;;0.27;58.51;100138.34;7255271;40;20375;31
2024/01/10 12:43:57;;;;;;;16.35;10.10;;;;;;;0.36;59.37;100137.00;7239190;40;20391;31
2024/01/10 12:49:37;;;;;;;20.00;10.80;;;;;;;0.44;58.69;100129.50;7228981;40;20395;31
2024/01/10 12:55:13;;;;;;;16.07;9.73;;;;;;;0.37;58.04;100118.37;7228066;40;20261;31
2024/01/10 13:00:46;;;;;;;18.57;9.97;;;;;;;0.36;58.49;100131.72;7258767;40;20249;31
2024/01/10 13:06:24;;;;;;;18.07;10.17;;;;;;;0.49;58.31;100126.62;7235294;40;20358;31
2024/01/10 13:11:56;;;;;;;17.53;9.60;;;;;;;0.50;57.88;100118.59;7219563;40;20314;31
2024/01/10 13:17:17;;;;;;;14.43;9.30;;;;;;;0.57;58.26;100124.44;7228958;40;20312;31
2024/01/10 13:22:52;;;;;;;16.47;9.77;;;;;;;0.58;57.75;100134.94;7217478;39;20508;31
2024/01/10 13:28:14;;;;;;;16.77;11.53;;;;;;;0.65;58.41;100139.00;7211882;39;20257;31
2024/01/10 13:33:34;;;;;;;17.15;9.65;;;;;;;0.62;58.67;100138.28;7207806;40;20301;31
2024/01/10 13:39:15;;;;;;;15.45;9.00;;;;;;;0.61;58.50;100141.91;7214651;40;20323;31
2024/01/10 13:44:46;;;;;;;17.80;9.73;;;;;;;0.54;58.29;100151.09;7200195;40;20254;31
2024/01/10 13:50:23;;;;;;;15.20;9.65;;;;;;;0.52;58.43;100148.56;7255247;40;20276;31
2024/01/10 13:55:58;;;;;;;16.87;10.40;;;;;;;0.50;58.77;100160.16;7203083;40;20401;31
2024/01/10 14:01:34;;;;;;;16.67;9.23;;;;;;;0.46;57.77;100146.22;7220967;40;20258;31
2024/01/10 14:07:06;;;;;;;16.33;9.93;;;;;;;0.44;59.06;100145.41;7025631;40;21238;31
2024/01/10 14:12:43;;;;;;;16.20;9.85;;;;;;;0.44;58.85;100150.72;7188963;40;20363;31
2024/01/10 14:18:05;;;;;;;15.90;9.80;;;;;;;0.49;59.22;100155.78;7208796;40;20330;31
2024/01/10 14:23:40;;;;;;;15.27;8.80;;;;;;;0.48;58.83;100160.25;7226437;40;20484;31
2024/01/10 14:29:17;;;;;;;16.67;9.33;;;;;;;0.39;58.61;100160.72;7185850;40;20249;31
2024/01/10 14:34:55;;;;;;;15.30;9.70;;;;;;;0.44;59.76;100145.41;7227709;40;20253;31
2024/01/10 14:40:16;;;;;;;15.40;9.60;;;;;;;0.44;59.60;100148.06;7216093;40;20238;31
2024/01/10 14:45:52;;;;;;;19.00;11.40;;;;;;;0.39;59.64;100151.00;7200173;40;21428;31
2024/01/10 14:51:13;;;;;;;14.17;10.03;;;;;;;0.38;59.63;100151.06;7200478;40;20238;31
2024/01/10 14:56:33;;;;;;;16.90;10.20;;;;;;;0.34;59.00;100155.66;7252411;40;20260;31
2024/01/10 15:02:09;;;;;;;17.97;11.30;;;;;;;0.30;59.56;100159.41;7278945;40;20222;31
2024/01/10 15:07:29;;;;;;;18.67;11.83;;;;;;;0.26;59.59;100162.31;7173766;40;20347;31
2024/01/10 15:12:49;;;;;;;17.93;11.77;;;;;;;0.27;59.61;100169.28;7155596;40;20383;31
2024/01/10 15:18:25;;;;;;;22.57;10.53;;;;;;;0.18;59.70;100164.47;7159247;40;20275;31
2024/01/10 15:23:45;;;;;;;15.57;9.60;;;;;;;0.17;60.44;100178.66;7146311;40;20242;31
2024/01/10 15:29:05;;;;;;;18.67;12.17;;;;;;;0.13;59.57;100182.41;7164520;40;20383;31
2024/01/10 15:34:41;;;;;;;25.25;17.55;;;;;;;0.11;59.96;100190.44;7167182;40;20250;31
2024/01/10 15:40:17;;;;;;;20.00;11.80;;;;;;;0.13;60.35;100188.56;7180771;40;20224;31
2024/01/10 15:45:37;;;;;;;20.97;14.60;;;;;;;0.13;60.24;100195.66;7198614;40;20392;31
2024/01/10 15:51:14;;;;;;;19.05;11.85;;;;;;;0.03;60.69;100192.59;7211619;40;20253;31
2024/01/10 15:56:49;;;;;;;17.27;10.60;;;;;;;-0.03;60.73;100195.53;7209803;40;20318;31
2024/01/10 16:02:25;;;;;;;20.53;11.33;;;;;;;-0.08;61.03;100182.53;7160010;40;20251;31
2024/01/10 16:08:02;;;;;;;32.00;17.87;;;;;;;-0.08;61.18;100184.31;7132502;40;20268;31
2024/01/10 16:13:38;;;;;;;26.73;15.53;;;;;;;-0.14;61.00;100187.28;7121795;40;20289;31
2024/01/10 16:19:14;;;;;;;47.10;25.70;;;;;;;-0.27;60.91;100189.69;7128361;40;20244;31
2024/01/10 16:24:52;;;;;;;26.13;15.70;;;;;;;-0.34;61.11;100197.97;7095073;40;20318;31
2024/01/10 16:30:26;;;;;;;47.17;20.17;;;;;;;-0.32;61.96;100191.69;7206188;40;20252;31
2024/01/10 16:35:59;;;;;;;46.10;20.40;;;;;;;-0.34;62.31;100198.84;7186726;40;20263;31
2024/01/10 16:41:36;;;;;;;20.25;11.85;;;;;;;-0.37;61.84;100206.94;7138101;40;20271;31
2024/01/10 16:47:12;;;;;;;26.03;13.57;;;;;;;-0.41;61.95;100204.50;7138114;40;20374;31
2024/01/10 16:52:32;;;;;;;20.65;13.25;;;;;;;-0.50;61.94;100208.44;7129049;40;20303;31
2024/01/10 16:58:06;;;;;;;19.70;11.65;;;;;;;-0.60;61.64;100202.72;7166138;40;20246;31
2024/01/10 17:03:26;;;;;;;21.17;11.23;;;;;;;-0.62;62.02;100209.03;7224955;40;20339;31
2024/01/10 17:09:01;;;;;;;17.55;10.90;;;;;;;-0.65;62.38;100210.00;7228617;40;20275;31
2024/01/10 17:14:37;;;;;;;18.30;11.10;;;;;;;-0.71;62.50;100209.47;7236229;40;20242;31
2024/01/10 17:19:58;;;;;;;18.00;11.20;;;;;;;-0.72;62.30;100210.37;7245883;40;20323;31
2024/01/10 17:25:33;;;;;;;15.23;10.17;;;;;;;-0.71;62.89;100217.41;7248326;40;20429;31
2024/01/10 17:36:25;;;;;;;17.17;11.20;;;;;;;-0.74;62.68;100222.81;7261348;40;21670;31
2024/01/10 17:47:05;;;;;;;22.13;11.40;;;;;;;-0.72;63.11;100221.81;7178000;40;20765;31
2024/01/10 17:52:42;;;;;;;24.15;12.95;;;;;;;-0.84;63.15;100218.88;7164549;40;20238;31
2024/01/10 17:58:18;;;;;;;22.00;12.97;;;;;;;-0.84;63.18;100218.88;7221759;40;20502;31
2024/01/10 18:03:54;;;;;;;21.70;11.10;;;;;;;-0.83;63.49;100228.56;7221024;40;20243;31
2024/01/10 18:09:31;;;;;;;15.23;10.47;;;;;;;-0.94;62.31;100227.25;7207595;40;20245;31
2024/01/10 18:14:51;;;;;;;18.10;10.75;;;;;;;-0.91;63.32;100229.75;7214871;40;20265;31
2024/01/10 18:20:11;;;;;;;18.53;11.20;;;;;;;-0.93;62.46;100228.09;7229169;40;20403;31
2024/01/10 18:25:48;;;;;;;17.65;10.80;;;;;;;-0.99;62.43;100231.88;7296838;39;20288;31
2024/01/10 18:36:10;;;;;;;20.80;11.37;;;;;;;-1.06;63.26;100245.47;7298671;39;21213;31
2024/01/10 18:41:44;;;;;;;17.80;10.30;;;;;;;-1.08;62.39;100242.88;7304957;39;20284;31
2024/01/10 18:47:17;;;;;;;16.73;9.77;;;;;;;-1.04;63.02;100241.81;7266060;39;20468;31
2024/01/10 18:52:55;;;;;;;15.73;9.60;;;;;;;-1.05;63.11;100245.38;7217997;40;20242;31
2024/01/10 18:58:30;;;;;;;17.73;10.47;;;;;;;-1.13;63.33;100259.84;7209844;40;20242;31
2024/01/10 19:03:52;;;;;;;16.57;9.73;;;;;;;-1.13;63.12;100252.78;7182221;40;20254;31
2024/01/10 19:09:27;;;;;;;16.90;9.60;;;;;;;-1.12;63.64;100246.56;7188280;40;20247;31
2024/01/10 19:15:04;;;;;;;15.13;9.83;;;;;;;-1.19;62.74;100250.44;7188548;40;20235;31
2024/01/10 19:20:25;;;;;;;19.60;9.70;;;;;;;-1.17;63.78;100256.50;7216013;40;20252;31
2024/01/10 19:25:59;;;;;;;14.70;9.60;;;;;;;-1.13;63.56;100259.84;7277948;40;20252;31
2024/01/10 19:31:36;;;;;;;16.37;9.27;;;;;;;-1.17;64.04;100259.12;7165086;40;20350;31
2024/01/10 19:36:57;;;;;;;17.63;9.80;;;;;;;-1.15;63.90;100257.31;7151597;40;20278;31
2024/01/10 19:42:32;;;;;;;16.90;9.35;;;;;;;-1.14;63.07;100258.16;7181546;40;20267;31
2024/01/10 19:48:08;;;;;;;22.33;9.57;;;;;;;-1.18;63.20;100262.69;7121413;40;20417;31
2024/01/10 19:53:47;;;;;;;21.47;10.80;;;;;;;-1.17;63.43;100276.78;7261314;39;20241;31
2024/01/10 19:59:18;;;;;;;19.30;10.17;;;;;;;-1.21;64.08;100267.28;7247778;40;20273;31
2024/01/10 20:04:54;;;;;;;16.40;10.40;;;;;;;-1.29;64.11;100264.09;7217880;40;20243;31
2024/01/10 20:10:15;;;;;;;17.80;10.90;;;;;;;-1.28;63.82;100272.00;7202317;40;20236;31
2024/01/10 20:15:47;;;;;;;16.55;10.65;;;;;;;-1.30;64.20;100267.66;7187055;40;20236;31
2024/01/10 20:21:23;;;;;;;16.80;9.65;;;;;;;-1.41;64.25;100268.16;7177534;40;20805;31
2024/01/10 20:26:58;;;;;;;16.87;10.67;;;;;;;-1.48;64.41;100275.47;7147981;40;20689;31
2024/01/10 20:32:33;;;;;;;19.60;10.53;;;;;;;-1.49;65.01;100262.31;7178335;40;20255;31
2024/01/10 20:38:08;;;;;;;18.80;10.50;;;;;;;-1.48;64.38;100271.97;7176168;40;20341;31
2024/01/10 20:43:29;;;;;;;17.45;10.75;;;;;;;-1.41;65.72;100278.72;7156287;40;20370;31
2024/01/10 20:49:01;;;;;;;18.65;11.15;;;;;;;-1.44;64.72;100279.69;6993442;40;21480;31
2024/01/10 20:54:38;;;;;;;22.47;13.17;;;;;;;-1.44;65.66;100282.34;7154939;40;20456;31
2024/01/10 21:05:15;;;;;;;20.42;11.40;;;;;;;-1.48;65.00;100267.53;7193408;40;20251;31
2024/01/10 21:10:50;;;;;;;20.10;11.70;;;;;;;-1.51;65.79;100274.75;7184416;40;20859;31
2024/01/10 21:16:09;;;;;;;23.00;13.90;;;;;;;-1.51;65.38;100280.03;7223780;40;20266;31
2024/01/10 21:21:45;;;;;;;20.70;13.05;;;;;;;-1.51;66.00;100270.31;7302148;39;20408;31
2024/01/10 21:27:21;;;;;;;19.43;12.40;;;;;;;-1.46;65.68;100270.13;7272399;39;20781;31
2024/01/10 21:32:41;;;;;;;23.20;13.27;;;;;;;-1.45;65.40;100262.09;7308841;39;20323;31
2024/01/10 21:38:17;;;;;;;20.40;11.80;;;;;;;-1.53;65.79;100258.94;7277347;40;20253;31
2024/01/10 21:43:54;;;;;;;21.30;11.15;;;;;;;-1.54;65.23;100256.38;7256874;40;20827;31
2024/01/10 21:49:28;;;;;;;19.13;11.40;;;;;;;-1.59;66.19;100258.34;7229885;40;20772;31
2024/01/10 21:54:48;;;;;;;19.83;11.77;;;;;;;-1.59;66.34;100255.72;7205979;40;20239;31
2024/01/10 22:00:25;;;;;;;18.90;11.10;;;;;;;-1.68;66.87;100266.66;7218967;40;20844;31
2024/01/10 22:05:43;;;;;;;20.45;11.95;;;;;;;-1.69;66.43;100267.56;7187430;40;20244;31
2024/01/10 22:11:19;;;;;;;17.93;10.57;;;;;;;-1.65;67.09;100264.75;7256370;39;20243;31
2024/01/10 22:16:55;;;;;;;22.90;12.65;;;;;;;-1.70;66.63;100263.22;7204664;40;20386;31
2024/01/10 22:22:31;;;;;;;18.57;11.30;;;;;;;-1.62;66.90;100267.25;7225433;40;20817;31
2024/01/10 22:28:05;;;;;;;19.67;11.20;;;;;;;-1.65;66.05;100255.94;7218146;40;20804;31
2024/01/10 22:38:40;;;;;;;19.20;12.27;;;;;;;-1.73;66.71;100256.28;7209593;40;21232;31
2024/01/10 22:44:00;;;;;;;19.20;11.40;;;;;;;-1.71;66.47;100269.44;7191371;40;20352;31
2024/01/10 22:49:20;;;;;;;17.20;10.50;;;;;;;-1.84;66.82;100264.63;7199015;40;20748;31
2024/01/10 22:54:56;;;;;;;19.25;11.45;;;;;;;-1.88;66.84;100262.19;7241317;40;20285;31
2024/01/10 23:05:35;;;;;;;18.07;11.07;;;;;;;-1.99;67.54;100275.84;7201075;40;20637;31
2024/01/10 23:11:12;;;;;;;20.53;10.90;;;;;;;-2.07;67.59;100282.34;7229850;40;20795;31
2024/01/10 23:16:31;;;;;;;17.77;9.23;;;;;;;-2.04;67.31;100285.72;7205033;40;20800;31
2024/01/10 23:21:52;;;;;;;18.33;10.53;;;;;;;-2.11;67.58;100272.84;7242895;39;20335;31
2024/01/10 23:27:28;;;;;;;20.27;11.00;;;;;;;-2.03;68.19;100271.59;7294996;39;20307;31
2024/01/10 23:32:48;;;;;;;17.30;10.55;;;;;;;-1.99;67.29;100278.47;7271591;39;20349;31
2024/01/10 23:38:08;;;;;;;17.25;10.40;;;;;;;-1.93;67.41;100275.56;7270985;40;20265;31
2024/01/10 23:43:45;;;;;;;17.77;10.53;;;;;;;-1.98;67.76;100274.94;7265003;40;20237;31
2024/01/10 23:49:05;;;;;;;15.17;10.00;;;;;;;-2.00;67.96;100266.19;7253893;40;20248;31
2024/01/10 23:54:41;;;;;;;18.50;11.10;;;;;;;-2.06;67.96;100274.34;7265162;40;20347;31
